createdAt,value
2019-05-05T00:00:45.596Z,3.35
2019-05-05T00:03:36.007Z,3.31
2019-05-05T00:06:05.898Z,3.36
2019-05-05T00:08:35.216Z,3.31
2019-05-05T00:11:26.397Z,3.34
2019-05-05T00:14:04.581Z,3.25
2019-05-05T00:16:39.965Z,3.20
2019-05-05T00:19:08.962Z,3.09
2019-05-05T00:21:37.775Z,3.19
2019-05-05T00:24:07.170Z,3.15
2019-05-05T00:26:36.156Z,3.21
2019-05-05T00:29:05.217Z,3.17
2019-05-05T00:31:35.022Z,3.26
2019-05-05T00:34:05.018Z,3.16
2019-05-05T00:36:35.228Z,3.11
2019-05-05T00:39:05.097Z,3.02
2019-05-05T00:41:34.621Z,2.97
2019-05-05T00:44:04.764Z,2.94
2019-05-05T00:46:54.908Z,2.97
2019-05-05T00:49:25.020Z,3.07
2019-05-05T00:51:54.648Z,3.08
2019-05-05T00:54:24.434Z,3.08
2019-05-05T00:56:54.510Z,3.09
2019-05-05T00:59:28.663Z,3.03
2019-05-05T01:02:19.970Z,2.84
2019-05-05T01:05:05.463Z,2.90
2019-05-05T01:07:35.131Z,2.86
2019-05-05T01:10:05.017Z,2.66
2019-05-05T01:12:34.868Z,2.68
2019-05-05T01:15:04.784Z,2.60
2019-05-05T01:17:34.521Z,2.69
2019-05-05T01:20:06.797Z,2.80
2019-05-05T01:22:34.911Z,2.73
2019-05-05T01:25:05.423Z,2.74
2019-05-05T01:27:34.806Z,2.87
2019-05-05T01:30:04.904Z,2.86
2019-05-05T01:32:37.515Z,2.73
2019-05-05T01:35:06.855Z,2.78
2019-05-05T01:37:44.317Z,2.79
2019-05-05T01:40:41.106Z,2.69
2019-05-05T01:43:10.013Z,2.79
2019-05-05T01:45:38.998Z,2.76
2019-05-05T01:48:07.954Z,2.70
2019-05-05T01:50:36.950Z,2.62
2019-05-05T01:53:06.281Z,2.79
2019-05-05T01:55:35.447Z,2.82
2019-05-05T01:58:05.016Z,2.80
2019-05-05T02:00:34.742Z,2.83
2019-05-05T02:03:04.660Z,2.79
2019-05-05T02:05:34.780Z,2.87
2019-05-05T02:08:04.946Z,2.84
2019-05-05T02:10:34.899Z,2.88
2019-05-05T02:13:04.758Z,2.86
2019-05-05T02:15:34.331Z,2.80
2019-05-05T02:18:04.525Z,2.80
2019-05-05T02:20:44.877Z,2.75
2019-05-05T02:23:15.765Z,2.76
2019-05-05T02:25:44.864Z,2.77
2019-05-05T02:28:14.971Z,2.69
2019-05-05T02:31:05.399Z,2.77
2019-05-05T02:33:35.376Z,2.74
2019-05-05T02:36:05.572Z,2.74
2019-05-05T02:38:35.646Z,2.72
2019-05-05T02:41:05.317Z,2.67
2019-05-05T02:43:36.329Z,2.70
2019-05-05T02:46:16.529Z,2.67
2019-05-05T02:48:47.520Z,2.65
2019-05-05T02:51:17.611Z,2.62
2019-05-05T02:53:49.877Z,2.64
2019-05-05T02:56:25.428Z,2.65
2019-05-05T02:58:58.465Z,2.63
2019-05-05T03:01:40.558Z,2.65
2019-05-05T03:04:10.204Z,2.63
2019-05-05T03:06:43.764Z,2.63
2019-05-05T03:09:14.944Z,2.62
2019-05-05T03:11:48.233Z,2.61
2019-05-05T03:14:19.657Z,2.59
2019-05-05T03:16:49.758Z,2.62
2019-05-05T03:19:20.710Z,2.60
2019-05-05T03:21:49.887Z,2.59
2019-05-05T03:24:19.120Z,2.57
2019-05-05T03:26:48.322Z,2.43
2019-05-05T03:29:20.155Z,2.53
2019-05-05T03:31:50.730Z,2.54
2019-05-05T03:34:21.122Z,2.51
2019-05-05T03:36:50.870Z,2.44
2019-05-05T03:39:24.732Z,2.43
2019-05-05T03:42:07.904Z,2.43
2019-05-05T03:44:48.339Z,2.43
2019-05-05T03:47:18.359Z,2.39
2019-05-05T03:49:47.412Z,2.35
2019-05-05T03:52:16.406Z,2.35
2019-05-05T03:54:45.704Z,2.31
2019-05-05T03:57:15.101Z,2.26
2019-05-05T03:59:44.845Z,2.36
2019-05-05T04:02:34.080Z,2.37
2019-05-05T04:05:14.830Z,2.46
2019-05-05T04:07:44.043Z,2.52
2019-05-05T04:10:14.043Z,2.43
2019-05-05T04:12:43.637Z,2.44
2019-05-05T04:15:15.756Z,2.52
2019-05-05T04:17:50.912Z,2.47
2019-05-05T04:20:33.583Z,2.48
2019-05-05T04:23:03.747Z,2.42
2019-05-05T04:25:32.507Z,2.47
2019-05-05T04:28:01.665Z,2.54
2019-05-05T04:30:30.535Z,2.59
2019-05-05T04:32:59.356Z,2.58
2019-05-05T04:35:28.594Z,2.55
2019-05-05T04:37:57.530Z,2.61
2019-05-05T04:40:26.431Z,2.64
2019-05-05T04:42:55.292Z,2.97
2019-05-05T04:45:24.349Z,2.98
2019-05-05T04:47:57.290Z,3.01
2019-05-05T04:50:47.802Z,2.97
2019-05-05T04:53:21.443Z,2.98
2019-05-05T04:55:50.317Z,2.95
2019-05-05T04:58:19.135Z,2.89
2019-05-05T05:00:48.045Z,2.88
2019-05-05T05:03:25.488Z,2.84
2019-05-05T05:06:19.528Z,2.99
2019-05-05T05:08:48.352Z,3.06
2019-05-05T05:11:17.234Z,3.16
2019-05-05T05:13:46.434Z,3.21
2019-05-05T05:16:15.459Z,3.21
2019-05-05T05:18:44.748Z,3.22
2019-05-05T05:21:14.482Z,3.20
2019-05-05T05:23:44.373Z,3.32
2019-05-05T05:26:13.990Z,3.33
2019-05-05T05:28:44.773Z,3.40
2019-05-05T05:31:14.149Z,3.43
2019-05-05T05:33:43.720Z,3.47
2019-05-05T05:36:14.396Z,3.40
2019-05-05T05:38:45.218Z,3.57
2019-05-05T05:41:20.386Z,3.47
2019-05-05T05:44:04.846Z,3.51
2019-05-05T05:46:54.481Z,3.67
2019-05-05T05:49:29.903Z,3.74
2019-05-05T05:52:12.102Z,3.91
2019-05-05T05:54:29.479Z,3.89
2019-05-05T05:56:58.434Z,3.83
2019-05-05T05:59:27.443Z,3.99
2019-05-05T06:02:09.000Z,3.89
2019-05-05T06:04:26.749Z,3.95
2019-05-05T06:06:55.648Z,4.00
2019-05-05T06:09:24.607Z,4.11
2019-05-05T06:11:54.213Z,4.11
2019-05-05T06:14:24.695Z,4.35
2019-05-05T06:16:54.026Z,4.34
2019-05-05T06:19:24.610Z,4.43
2019-05-05T06:21:54.261Z,4.57
2019-05-05T06:24:24.006Z,4.65
2019-05-05T06:26:54.695Z,4.75
2019-05-05T06:29:23.970Z,4.84
2019-05-05T06:31:53.825Z,5.05
2019-05-05T06:34:24.448Z,5.23
2019-05-05T06:36:53.749Z,5.41
2019-05-05T06:39:24.160Z,5.62
2019-05-05T06:42:04.484Z,5.69
2019-05-05T06:44:49.865Z,5.86
2019-05-05T06:47:23.595Z,5.77
2019-05-05T06:49:54.082Z,5.54
2019-05-05T06:52:24.737Z,5.37
2019-05-05T06:54:54.293Z,5.26
2019-05-05T06:57:24.052Z,5.36
2019-05-05T06:59:54.388Z,6.73
2019-05-05T07:02:23.876Z,9.06
2019-05-05T07:04:54.626Z,11.07
2019-05-05T07:07:23.834Z,10.60
2019-05-05T07:09:54.285Z,11.08
2019-05-05T07:12:24.147Z,10.74
2019-05-05T07:14:53.799Z,10.75
2019-05-05T07:17:24.505Z,11.69
2019-05-05T07:19:54.362Z,12.36
2019-05-05T07:22:24.413Z,12.84
2019-05-05T07:24:54.305Z,13.45
2019-05-05T07:27:24.305Z,14.53
2019-05-05T07:29:54.140Z,14.80
2019-05-05T07:32:24.543Z,13.64
2019-05-05T07:35:25.189Z,13.85
2019-05-05T07:37:54.160Z,14.60
2019-05-05T07:40:24.130Z,14.15
2019-05-05T07:42:54.051Z,14.29
2019-05-05T07:45:25.741Z,13.45
2019-05-05T07:47:54.439Z,11.19
2019-05-05T07:50:31.668Z,11.40
2019-05-05T07:52:54.657Z,11.45
2019-05-05T07:55:23.824Z,10.65
2019-05-05T07:57:53.896Z,10.22
2019-05-05T08:00:24.042Z,9.82
2019-05-05T08:02:54.451Z,9.23
2019-05-05T08:05:24.585Z,9.39
2019-05-05T08:07:54.006Z,9.61
2019-05-05T08:10:24.144Z,9.49
2019-05-05T08:12:54.209Z,9.45
2019-05-05T08:15:24.222Z,9.19
2019-05-05T08:18:15.129Z,8.96
2019-05-05T08:20:46.725Z,8.60
2019-05-05T08:23:30.283Z,8.90
2019-05-05T08:26:11.036Z,8.94
2019-05-05T08:29:08.054Z,8.58
2019-05-05T08:32:05.389Z,7.69
2019-05-05T08:34:34.384Z,7.58
2019-05-05T08:37:04.366Z,7.61
2019-05-05T08:39:34.481Z,7.57
2019-05-05T08:42:04.408Z,7.58
2019-05-05T08:44:34.324Z,7.87
2019-05-05T08:47:04.425Z,8.09
2019-05-05T08:49:34.688Z,8.00
2019-05-05T08:52:04.291Z,8.12
2019-05-05T08:54:34.335Z,8.47
2019-05-05T08:57:04.211Z,8.25
2019-05-05T08:59:33.807Z,8.85
2019-05-05T09:02:04.563Z,9.02
2019-05-05T09:04:34.078Z,8.46
2019-05-05T09:07:05.022Z,8.20
2019-05-05T09:09:33.777Z,8.57
2019-05-05T09:12:04.544Z,8.76
2019-05-05T09:14:34.559Z,8.79
2019-05-05T09:17:04.407Z,8.49
2019-05-05T09:19:34.457Z,8.14
2019-05-05T09:22:06.704Z,7.59
2019-05-05T09:24:47.599Z,7.44
2019-05-05T09:27:36.222Z,7.53
2019-05-05T09:30:06.028Z,7.44
2019-05-05T09:32:34.831Z,7.90
2019-05-05T09:35:04.726Z,7.73
2019-05-05T09:37:34.068Z,8.02
2019-05-05T09:40:04.524Z,8.24
2019-05-05T09:42:34.161Z,8.14
2019-05-05T09:45:04.731Z,8.45
2019-05-05T09:47:34.400Z,8.21
2019-05-05T09:50:03.957Z,8.36
2019-05-05T09:52:33.805Z,7.77
2019-05-05T09:55:03.846Z,8.03
2019-05-05T09:57:34.399Z,7.86
2019-05-05T10:00:14.009Z,8.44
2019-05-05T10:02:44.202Z,8.96
2019-05-05T10:05:14.672Z,8.85
2019-05-05T10:07:44.219Z,8.62
2019-05-05T10:10:13.882Z,8.67
2019-05-05T10:12:44.561Z,9.09
2019-05-05T10:15:13.990Z,9.52
2019-05-05T10:17:42.909Z,9.16
2019-05-05T10:20:11.868Z,9.69
2019-05-05T10:22:51.871Z,9.69
2019-05-05T10:25:55.164Z,9.62
2019-05-05T10:28:33.947Z,9.41
2019-05-05T10:31:04.623Z,9.35
2019-05-05T10:33:59.889Z,9.62
2019-05-05T10:36:28.844Z,10.12
2019-05-05T10:39:04.404Z,9.89
2019-05-05T10:41:33.813Z,9.99
2019-05-05T10:44:03.647Z,10.54
2019-05-05T10:46:34.124Z,10.45
2019-05-05T10:49:03.661Z,9.88
2019-05-05T10:51:34.633Z,9.84
2019-05-05T10:54:04.014Z,10.10
2019-05-05T10:56:34.553Z,10.41
2019-05-05T10:59:03.980Z,10.16
2019-05-05T11:01:32.846Z,9.98
2019-05-05T11:04:02.098Z,9.81
2019-05-05T11:06:31.025Z,9.83
2019-05-05T11:09:00.181Z,9.63
2019-05-05T11:11:29.137Z,9.28
2019-05-05T11:13:58.217Z,9.37
2019-05-05T11:16:27.255Z,9.29
2019-05-05T11:18:56.236Z,9.23
2019-05-05T11:21:25.148Z,9.47
2019-05-05T11:23:54.156Z,9.87
2019-05-05T11:26:24.699Z,9.97
2019-05-05T11:28:53.914Z,10.56
2019-05-05T11:31:23.943Z,10.90
2019-05-05T11:34:10.710Z,10.66
2019-05-05T11:36:58.712Z,10.24
2019-05-05T11:39:27.820Z,10.11
2019-05-05T11:41:56.916Z,9.94
2019-05-05T11:44:26.054Z,9.99
2019-05-05T11:46:55.050Z,9.96
2019-05-05T11:49:24.545Z,10.28
2019-05-05T11:51:54.345Z,10.19
2019-05-05T11:54:24.604Z,10.30
2019-05-05T11:56:54.091Z,10.51
2019-05-05T11:59:23.809Z,10.62
2019-05-05T12:01:55.036Z,10.73
2019-05-05T12:04:24.114Z,11.01
2019-05-05T12:06:53.258Z,10.71
2019-05-05T12:09:31.423Z,10.70
2019-05-05T12:12:00.326Z,11.41
2019-05-05T12:14:31.098Z,11.61
2019-05-05T12:17:00.165Z,11.24
2019-05-05T12:19:29.285Z,10.93
2019-05-05T12:21:58.180Z,10.83
2019-05-05T12:24:30.906Z,11.09
2019-05-05T12:27:21.971Z,11.13
2019-05-05T12:29:54.800Z,11.10
2019-05-05T12:32:24.220Z,11.41
2019-05-05T12:34:53.869Z,11.39
2019-05-05T12:37:23.668Z,11.47
2019-05-05T12:39:54.583Z,11.28
2019-05-05T12:42:24.245Z,10.90
2019-05-05T12:45:04.394Z,10.86
2019-05-05T12:47:58.951Z,10.79
2019-05-05T12:50:28.118Z,10.84
2019-05-05T12:52:57.054Z,11.67
2019-05-05T12:55:39.038Z,11.32
2019-05-05T12:57:58.856Z,11.12
2019-05-05T13:00:27.762Z,11.07
2019-05-05T13:02:56.792Z,11.48
2019-05-05T13:05:25.802Z,11.87
2019-05-05T13:07:54.723Z,12.22
2019-05-05T13:10:24.368Z,12.70
2019-05-05T13:12:54.292Z,12.36
2019-05-05T13:15:24.717Z,11.47
2019-05-05T13:17:54.294Z,11.45
2019-05-05T13:20:38.428Z,11.58
2019-05-05T13:23:15.873Z,11.19
2019-05-05T13:25:59.407Z,11.29
2019-05-05T13:28:28.597Z,11.19
2019-05-05T13:30:57.537Z,11.44
2019-05-05T13:33:26.511Z,11.44
2019-05-05T13:35:55.600Z,11.31
2019-05-05T13:38:24.519Z,11.28
2019-05-05T13:40:54.409Z,11.38
2019-05-05T13:43:23.841Z,11.32
2019-05-05T13:46:10.452Z,11.61
2019-05-05T13:48:39.523Z,11.48
2019-05-05T13:51:08.728Z,11.48
2019-05-05T13:53:37.656Z,11.47
2019-05-05T13:56:11.519Z,11.14
2019-05-05T13:58:37.472Z,10.70
2019-05-05T14:01:09.594Z,10.36
2019-05-05T14:03:37.026Z,10.46
2019-05-05T14:06:06.064Z,10.55
2019-05-05T14:08:36.443Z,10.63
2019-05-05T14:11:05.695Z,11.07
2019-05-05T14:13:34.684Z,10.67
2019-05-05T14:16:03.959Z,10.62
2019-05-05T14:18:33.044Z,10.94
2019-05-05T14:21:01.991Z,11.41
2019-05-05T14:23:34.557Z,11.15
2019-05-05T14:26:03.889Z,11.26
2019-05-05T14:28:34.029Z,11.21
2019-05-05T14:31:14.074Z,10.98
2019-05-05T14:33:55.336Z,11.12
2019-05-05T14:37:04.954Z,10.86
2019-05-05T14:39:34.185Z,10.54
2019-05-05T14:42:04.472Z,10.79
2019-05-05T14:44:34.299Z,10.91
2019-05-05T14:47:03.368Z,11.15
2019-05-05T14:49:33.895Z,11.34
2019-05-05T14:52:04.456Z,11.13
2019-05-05T14:54:34.160Z,11.38
2019-05-05T14:57:04.573Z,11.22
2019-05-05T14:59:34.068Z,11.37
2019-05-05T15:02:04.278Z,11.96
2019-05-05T15:04:34.930Z,12.15
2019-05-05T15:07:15.456Z,11.82
2019-05-05T15:09:51.368Z,11.68
2019-05-05T15:12:36.955Z,11.60
2019-05-05T15:15:07.360Z,11.55
2019-05-05T15:17:37.092Z,11.39
2019-05-05T15:20:07.647Z,12.45
2019-05-05T15:22:36.684Z,12.77
2019-05-05T15:25:05.965Z,12.28
2019-05-05T15:27:35.033Z,11.98
2019-05-05T15:30:04.640Z,11.84
2019-05-05T15:32:34.402Z,11.21
2019-05-05T15:35:04.058Z,11.03
2019-05-05T15:37:33.119Z,11.01
2019-05-05T15:40:04.027Z,10.92
2019-05-05T15:42:33.489Z,10.97
2019-05-05T15:45:03.988Z,11.03
2019-05-05T15:47:34.326Z,11.06
2019-05-05T15:50:04.493Z,11.05
2019-05-05T15:52:35.132Z,11.07
2019-05-05T15:55:04.801Z,11.18
2019-05-05T15:57:33.826Z,11.32
2019-05-05T16:00:03.433Z,11.45
2019-05-05T16:02:32.595Z,11.72
2019-05-05T16:05:01.483Z,11.75
2019-05-05T16:07:30.587Z,11.83
2019-05-05T16:09:59.606Z,11.77
2019-05-05T16:12:34.146Z,12.11
2019-05-05T16:15:10.139Z,12.78
2019-05-05T16:17:47.799Z,12.71
2019-05-05T16:20:24.290Z,12.29
2019-05-05T16:23:27.039Z,11.81
2019-05-05T16:25:56.020Z,11.75
2019-05-05T16:28:25.226Z,11.52
2019-05-05T16:30:56.125Z,11.32
2019-05-05T16:33:24.802Z,11.17
2019-05-05T16:35:53.723Z,11.23
2019-05-05T16:38:24.043Z,11.17
2019-05-05T16:40:53.757Z,10.61
2019-05-05T16:43:24.720Z,10.61
2019-05-05T16:45:53.847Z,10.00
2019-05-05T16:48:25.346Z,8.81
2019-05-05T16:50:54.125Z,8.16
2019-05-05T16:53:36.083Z,7.90
2019-05-05T16:56:07.172Z,7.42
2019-05-05T16:58:36.269Z,7.16
2019-05-05T17:01:07.987Z,7.11
2019-05-05T17:03:37.054Z,6.98
2019-05-05T17:06:06.084Z,6.92
2019-05-05T17:08:35.211Z,6.61
2019-05-05T17:11:04.138Z,6.59
2019-05-05T17:13:44.319Z,6.53
2019-05-05T17:16:30.179Z,6.59
2019-05-05T17:19:08.377Z,6.65
2019-05-05T17:21:55.269Z,6.53
2019-05-05T17:24:24.274Z,6.52
2019-05-05T17:26:54.857Z,6.59
2019-05-05T17:29:24.135Z,6.69
2019-05-05T17:31:53.972Z,6.84
2019-05-05T17:34:24.704Z,6.87
2019-05-05T17:36:54.142Z,7.10
2019-05-05T17:39:24.750Z,7.11
2019-05-05T17:42:05.121Z,7.11
2019-05-05T17:44:46.538Z,7.13
2019-05-05T17:47:19.878Z,7.14
2019-05-05T17:50:14.417Z,7.16
2019-05-05T17:52:53.764Z,7.27
2019-05-05T17:55:30.749Z,7.32
2019-05-05T17:58:02.554Z,7.36
2019-05-05T18:00:34.267Z,7.37
2019-05-05T18:03:04.381Z,7.39
2019-05-05T18:05:51.593Z,7.38
2019-05-05T18:08:38.192Z,7.41
2019-05-05T18:11:13.911Z,7.43
2019-05-05T18:13:46.497Z,7.43
2019-05-05T18:16:16.940Z,7.41
2019-05-05T18:18:45.918Z,7.53
2019-05-05T18:21:14.910Z,7.55
2019-05-05T18:23:44.252Z,7.54
2019-05-05T18:26:13.751Z,7.56
2019-05-05T18:28:44.751Z,7.54
2019-05-05T18:31:13.935Z,7.53
2019-05-05T18:33:42.954Z,7.51
2019-05-05T18:36:14.035Z,7.42
2019-05-05T18:38:44.486Z,7.39
2019-05-05T18:41:20.447Z,7.36
2019-05-05T18:44:03.831Z,7.32
2019-05-05T18:46:33.902Z,7.36
2019-05-05T18:49:04.370Z,7.33
2019-05-05T18:51:34.771Z,7.32
2019-05-05T18:54:04.278Z,7.33
2019-05-05T18:56:34.752Z,7.33
2019-05-05T18:59:06.436Z,7.36
2019-05-05T19:01:59.603Z,7.37
2019-05-05T19:04:42.973Z,7.36
2019-05-05T19:07:19.618Z,7.32
2019-05-05T19:09:53.791Z,7.29
2019-05-05T19:12:19.048Z,7.25
2019-05-05T19:14:47.953Z,7.32
2019-05-05T19:17:16.877Z,7.22
2019-05-05T19:19:49.394Z,7.21
2019-05-05T19:22:18.441Z,7.18
2019-05-05T19:24:47.351Z,7.10
2019-05-05T19:27:16.272Z,7.16
2019-05-05T19:29:46.262Z,7.16
2019-05-05T19:32:15.546Z,7.07
2019-05-05T19:34:44.515Z,6.99
2019-05-05T19:37:13.992Z,6.98
2019-05-05T19:39:43.034Z,6.93
2019-05-05T19:42:14.283Z,6.95
2019-05-05T19:44:43.780Z,6.97
2019-05-05T19:47:18.724Z,7.08
2019-05-05T19:50:09.600Z,6.97
2019-05-05T19:52:38.637Z,7.07
2019-05-05T19:55:07.893Z,7.05
2019-05-05T19:57:36.802Z,7.10
2019-05-05T20:00:07.355Z,7.06
2019-05-05T20:02:36.221Z,7.15
2019-05-05T20:05:05.464Z,7.20
2019-05-05T20:07:34.566Z,7.14
2019-05-05T20:10:04.135Z,7.21
2019-05-05T20:12:33.568Z,7.15
2019-05-05T20:15:04.262Z,7.18
2019-05-05T20:17:35.127Z,7.31
2019-05-05T20:20:05.433Z,7.26
2019-05-05T20:22:34.885Z,7.22
2019-05-05T20:25:04.392Z,7.34
2019-05-05T20:27:34.339Z,7.37
2019-05-05T20:30:06.482Z,7.31
2019-05-05T20:32:56.042Z,7.35
2019-05-05T20:35:35.425Z,7.37
2019-05-05T20:38:10.504Z,7.33
2019-05-05T20:40:40.992Z,7.32
2019-05-05T20:43:10.064Z,7.33
2019-05-05T20:45:39.164Z,7.34
2019-05-05T20:48:08.042Z,7.32
2019-05-05T20:50:37.281Z,7.30
2019-05-05T20:53:06.228Z,7.22
2019-05-05T20:55:35.064Z,7.20
2019-05-05T20:58:04.854Z,7.18
2019-05-05T21:00:34.736Z,7.14
2019-05-05T21:03:04.731Z,7.11
2019-05-05T21:05:34.471Z,7.16
2019-05-05T21:08:04.859Z,7.24
2019-05-05T21:10:34.747Z,7.24
2019-05-05T21:13:04.233Z,7.18
2019-05-05T21:15:33.969Z,7.18
2019-05-05T21:18:04.868Z,7.18
2019-05-05T21:20:34.722Z,7.28
2019-05-05T21:23:17.531Z,7.28
2019-05-05T21:25:53.842Z,7.37
2019-05-05T21:28:24.109Z,7.36
2019-05-05T21:30:53.970Z,7.40
2019-05-05T21:33:23.897Z,7.37
2019-05-05T21:35:55.064Z,7.36
2019-05-05T21:38:23.458Z,7.32
2019-05-05T21:40:52.359Z,7.30
2019-05-05T21:43:21.330Z,7.23
2019-05-05T21:45:50.296Z,7.16
2019-05-05T21:48:19.159Z,7.22
2019-05-05T21:50:54.259Z,7.38
2019-05-05T21:53:41.568Z,7.38
2019-05-05T21:56:47.816Z,7.28
2019-05-05T21:59:17.427Z,7.07
2019-05-05T22:01:49.267Z,7.07
2019-05-05T22:04:17.091Z,7.17
2019-05-05T22:06:46.067Z,7.13
2019-05-05T22:09:14.995Z,7.00
2019-05-05T22:11:44.232Z,6.96
2019-05-05T22:14:14.031Z,7.20
2019-05-05T22:16:44.579Z,7.20
2019-05-05T22:19:14.565Z,7.16
2019-05-05T22:21:50.867Z,7.38
2019-05-05T22:24:20.295Z,7.32
2019-05-05T22:26:49.508Z,7.17
2019-05-05T22:29:18.568Z,7.18
2019-05-05T22:31:47.464Z,7.22
2019-05-05T22:34:16.336Z,7.16
2019-05-05T22:36:45.300Z,7.18
2019-05-05T22:39:17.075Z,7.19
2019-05-05T22:41:48.320Z,7.08
2019-05-05T22:44:17.255Z,7.08
2019-05-05T22:46:46.554Z,7.16
2019-05-05T22:49:15.549Z,7.24
2019-05-05T22:51:44.910Z,7.23
2019-05-05T22:54:14.904Z,7.28
2019-05-05T22:56:44.846Z,7.28
2019-05-05T22:59:14.001Z,7.29
2019-05-05T23:01:42.928Z,7.18
2019-05-05T23:04:25.827Z,7.20
2019-05-05T23:06:58.882Z,7.20
2019-05-05T23:09:27.705Z,7.21
2019-05-05T23:11:56.784Z,7.21
2019-05-05T23:14:28.918Z,7.17
2019-05-05T23:17:11.550Z,7.25
2019-05-05T23:19:45.432Z,7.29
2019-05-05T23:22:27.503Z,7.28
2019-05-05T23:25:15.395Z,7.30
2019-05-05T23:27:47.264Z,7.30
2019-05-05T23:30:17.286Z,7.35
2019-05-05T23:32:46.881Z,7.45
2019-05-05T23:35:17.354Z,7.44
2019-05-05T23:37:46.585Z,7.36
2019-05-05T23:40:21.683Z,7.34
2019-05-05T23:42:50.926Z,7.41
2019-05-05T23:45:19.989Z,7.35
2019-05-05T23:47:48.877Z,7.32
2019-05-05T23:50:17.867Z,7.31
2019-05-05T23:52:46.865Z,7.26
2019-05-05T23:55:15.835Z,7.26
2019-05-05T23:57:44.880Z,7.27
